createdAt,value
2022-12-25T00:00:46.684Z,101174.28
2022-12-25T00:03:49.560Z,101173.50
2022-12-25T00:06:52.225Z,101175.31
2022-12-25T00:09:54.857Z,101178.03
2022-12-25T00:12:58.774Z,101185.22
2022-12-25T00:16:01.435Z,101181.06
2022-12-25T00:19:04.047Z,101185.59
2022-12-25T00:22:06.686Z,101181.31
2022-12-25T00:25:09.659Z,101191.22
2022-12-25T00:28:13.650Z,101194.75
2022-12-25T00:31:18.299Z,101206.28
2022-12-25T00:34:21.156Z,101214.19
2022-12-25T00:37:23.752Z,101222.22
2022-12-25T00:40:26.405Z,101218.72
2022-12-25T00:43:30.363Z,101222.22
2022-12-25T00:46:33.023Z,101220.53
2022-12-25T00:49:35.662Z,101216.09
2022-12-25T00:52:38.295Z,101218.69
2022-12-25T00:55:40.847Z,101211.81
2022-12-25T00:58:44.784Z,101210.09
2022-12-25T01:01:47.596Z,101204.97
2022-12-25T01:04:51.238Z,101200.78
2022-12-25T01:07:53.847Z,101199.06
2022-12-25T01:10:57.115Z,101199.94
2022-12-25T01:14:01.058Z,101205.34
2022-12-25T01:17:03.633Z,101210.84
2022-12-25T01:20:07.391Z,101204.66
2022-12-25T01:23:10.009Z,101205.47
2022-12-25T01:26:14.231Z,101207.41
2022-12-25T01:29:18.148Z,101209.09
2022-12-25T01:32:20.751Z,101218.84
2022-12-25T01:35:23.348Z,101223.22
2022-12-25T01:38:26.229Z,101218.78
2022-12-25T01:41:28.836Z,101235.53
2022-12-25T01:45:23.877Z,101242.53
2022-12-25T01:48:31.661Z,101250.41
2022-12-25T01:51:40.023Z,101244.25
2022-12-25T01:54:46.725Z,101242.28
2022-12-25T01:57:49.851Z,101242.53
2022-12-25T02:00:53.168Z,101249.63
2022-12-25T02:04:02.473Z,101257.47
2022-12-25T02:07:06.482Z,101252.91
2022-12-25T02:10:10.377Z,101260.59
2022-12-25T02:13:14.503Z,101265.28
2022-12-25T02:16:21.019Z,101266.91
2022-12-25T02:19:39.062Z,101266.03
2022-12-25T02:22:51.310Z,101268.63
2022-12-25T02:26:05.130Z,101270.38
2022-12-25T02:29:15.699Z,101267.75
2022-12-25T02:32:25.554Z,101271.16
2022-12-25T02:35:31.688Z,101272.91
2022-12-25T02:38:38.559Z,101271.31
2022-12-25T02:41:45.645Z,101267.72
2022-12-25T02:45:09.864Z,101275.41
2022-12-25T02:48:32.260Z,101266.00
2022-12-25T02:51:56.633Z,101280.03
2022-12-25T02:55:21.698Z,101277.28
2022-12-25T02:58:44.118Z,101279.00
2022-12-25T03:02:05.832Z,101273.78
2022-12-25T03:05:32.183Z,101273.03
2022-12-25T03:08:40.240Z,101275.66
2022-12-25T03:11:42.305Z,101277.44
2022-12-25T03:15:02.547Z,101273.97
2022-12-25T03:18:10.082Z,101267.69
2022-12-25T03:21:30.085Z,101259.06
2022-12-25T03:24:50.209Z,101269.69
2022-12-25T03:27:55.725Z,101262.63
2022-12-25T03:31:12.877Z,101269.75
2022-12-25T03:34:44.730Z,101271.72
2022-12-25T03:38:14.514Z,101266.50
2022-12-25T03:41:40.276Z,101263.78
2022-12-25T03:45:10.182Z,101276.88
2022-12-25T03:48:31.422Z,101272.50
2022-12-25T03:51:57.487Z,101268.94
2022-12-25T03:55:22.138Z,101276.00
2022-12-25T03:58:44.793Z,101276.78
2022-12-25T04:02:05.118Z,101262.03
2022-12-25T04:05:31.531Z,101253.97
2022-12-25T04:08:53.072Z,101246.94
2022-12-25T04:12:21.780Z,101254.03
2022-12-25T04:15:42.056Z,101246.88
2022-12-25T04:19:02.373Z,101239.88
2022-12-25T04:22:22.620Z,101223.13
2022-12-25T04:25:44.338Z,101225.66
2022-12-25T04:29:04.688Z,101220.44
2022-12-25T04:32:25.102Z,101223.97
2022-12-25T04:35:47.638Z,101222.94
2022-12-25T04:38:50.246Z,101220.31
2022-12-25T04:41:54.162Z,101230.75
2022-12-25T04:44:56.758Z,101239.50
2022-12-25T04:48:00.414Z,101226.28
2022-12-25T04:51:15.533Z,101216.59
2022-12-25T04:54:18.259Z,101210.50
2022-12-25T04:57:22.193Z,101212.06
2022-12-25T05:00:24.801Z,101214.97
2022-12-25T05:03:27.487Z,101215.63
2022-12-25T05:06:30.119Z,101218.03
2022-12-25T05:09:32.782Z,101203.84
2022-12-25T05:12:36.728Z,101196.78
2022-12-25T05:15:40.572Z,101193.41
2022-12-25T05:18:43.206Z,101185.50
2022-12-25T05:21:45.803Z,101183.78
2022-12-25T05:24:48.391Z,101180.34
2022-12-25T05:27:54.087Z,101183.09
2022-12-25T05:30:57.502Z,101167.94
2022-12-25T05:34:00.150Z,101164.47
2022-12-25T05:37:02.765Z,101171.72
2022-12-25T05:40:06.494Z,101171.44
2022-12-25T05:43:10.473Z,101168.66
2022-12-25T05:46:14.854Z,101163.34
2022-12-25T05:49:17.515Z,101151.91
2022-12-25T05:52:20.136Z,101163.22
2022-12-25T05:55:22.703Z,101157.00
2022-12-25T05:58:26.627Z,101160.50
2022-12-25T06:01:30.035Z,101157.81
2022-12-25T06:04:32.749Z,101170.94
2022-12-25T06:07:35.385Z,101173.53
2022-12-25T06:10:38.226Z,101176.28
2022-12-25T06:13:42.348Z,101174.44
2022-12-25T06:16:45.040Z,101167.25
2022-12-25T06:19:47.701Z,101165.63
2022-12-25T06:22:50.288Z,101181.53
2022-12-25T06:25:53.158Z,101177.84
2022-12-25T06:28:57.119Z,101176.91
2022-12-25T06:31:59.764Z,101184.09
2022-12-25T06:35:02.379Z,101175.53
2022-12-25T06:38:04.961Z,101171.03
2022-12-25T06:41:09.027Z,101177.97
2022-12-25T06:44:12.967Z,101177.06
2022-12-25T06:47:15.566Z,101172.81
2022-12-25T06:50:18.285Z,101172.03
2022-12-25T06:53:20.874Z,101167.66
2022-12-25T06:56:25.973Z,101178.09
2022-12-25T06:59:29.994Z,101175.38
2022-12-25T07:02:34.486Z,101180.66
2022-12-25T07:05:37.237Z,101176.50
2022-12-25T07:08:40.049Z,101191.88
2022-12-25T07:11:42.671Z,101194.56
2022-12-25T07:14:48.759Z,101205.25
2022-12-25T07:17:51.364Z,101189.56
2022-12-25T07:20:55.607Z,101201.75
2022-12-25T07:23:58.191Z,101194.44
2022-12-25T07:27:00.932Z,101196.16
2022-12-25T07:30:05.647Z,101188.97
2022-12-25T07:33:08.229Z,101188.00
2022-12-25T07:36:13.004Z,101186.25
2022-12-25T07:39:16.181Z,101188.00
2022-12-25T07:42:24.808Z,101196.72
2022-12-25T07:45:29.335Z,101195.78
2022-12-25T07:48:32.593Z,101198.47
2022-12-25T07:51:35.303Z,101187.94
2022-12-25T07:54:37.845Z,101179.09
2022-12-25T07:57:40.976Z,101193.06
2022-12-25T08:00:44.914Z,101182.50
2022-12-25T08:03:50.735Z,101184.06
2022-12-25T08:06:53.404Z,101176.13
2022-12-25T08:09:55.998Z,101177.03
2022-12-25T08:12:58.610Z,101177.81
2022-12-25T08:16:04.397Z,101175.28
2022-12-25T08:19:06.962Z,101164.47
2022-12-25T08:22:09.559Z,101162.94
2022-12-25T08:25:12.159Z,101149.59
2022-12-25T08:28:14.801Z,101151.38
2022-12-25T08:31:21.093Z,101159.19
2022-12-25T08:34:23.843Z,101160.44
2022-12-25T08:37:26.630Z,101159.97
2022-12-25T08:40:29.433Z,101166.91
2022-12-25T08:43:32.099Z,101164.25
2022-12-25T08:46:36.692Z,101162.44
2022-12-25T08:49:39.397Z,101156.25
2022-12-25T08:52:42.222Z,101161.56
2022-12-25T08:55:45.257Z,101144.81
2022-12-25T08:58:47.986Z,101164.22
2022-12-25T09:01:52.062Z,101170.94
2022-12-25T09:04:54.722Z,101163.81
2022-12-25T09:07:57.410Z,101167.38
2022-12-25T09:11:03.336Z,101171.13
2022-12-25T09:14:06.056Z,101170.78
2022-12-25T09:17:10.348Z,101177.91
2022-12-25T09:20:13.069Z,101182.38
2022-12-25T09:23:15.682Z,101176.03
2022-12-25T09:26:20.120Z,101172.38
2022-12-25T09:29:22.763Z,101165.75
2022-12-25T09:32:26.701Z,101176.06
2022-12-25T09:35:29.316Z,101181.31
2022-12-25T09:38:31.949Z,101173.28
2022-12-25T09:41:38.400Z,101175.72
2022-12-25T09:44:45.485Z,101167.94
2022-12-25T09:47:50.387Z,101167.09
2022-12-25T09:50:58.662Z,101169.69
2022-12-25T09:54:06.013Z,101169.63
2022-12-25T09:57:12.161Z,101170.44
2022-12-25T10:00:16.965Z,101176.53
2022-12-25T10:03:31.513Z,101183.50
2022-12-25T10:06:42.627Z,101181.56
2022-12-25T10:09:59.809Z,101186.91
2022-12-25T10:13:12.459Z,101178.13
2022-12-25T10:16:21.980Z,101175.72
2022-12-25T10:19:41.591Z,101171.88
2022-12-25T10:22:48.612Z,101167.41
2022-12-25T10:25:53.356Z,101166.38
2022-12-25T10:29:01.028Z,101162.72
2022-12-25T10:32:03.608Z,101146.81
2022-12-25T10:35:12.312Z,101136.91
2022-12-25T10:38:17.902Z,101127.81
2022-12-25T10:41:34.196Z,101124.09
2022-12-25T10:44:36.959Z,101113.31
2022-12-25T10:47:42.480Z,101115.25
2022-12-25T10:50:46.831Z,101100.91
2022-12-25T10:53:49.433Z,101095.91
2022-12-25T10:56:57.861Z,101109.09
2022-12-25T11:00:01.667Z,101100.84
2022-12-25T11:03:04.546Z,101091.88
2022-12-25T11:06:23.267Z,101086.00
2022-12-25T11:09:26.012Z,101078.69
2022-12-25T11:12:32.402Z,101067.16
2022-12-25T11:15:38.941Z,101061.81
2022-12-25T11:18:47.681Z,101053.75
2022-12-25T11:21:53.415Z,101043.25
2022-12-25T11:24:56.419Z,101042.97
2022-12-25T11:28:00.837Z,101041.78
2022-12-25T11:31:08.744Z,101042.44
2022-12-25T11:34:19.820Z,101045.22
2022-12-25T11:37:31.444Z,101044.47
2022-12-25T11:40:41.571Z,101044.97
2022-12-25T11:43:50.157Z,101042.81
2022-12-25T11:46:55.977Z,101044.41
2022-12-25T11:50:03.791Z,101047.38
2022-12-25T11:53:15.768Z,101034.97
2022-12-25T11:56:21.484Z,101019.28
2022-12-25T11:59:28.569Z,101026.22
2022-12-25T12:02:36.153Z,101026.84
2022-12-25T12:05:45.147Z,101034.97
2022-12-25T12:08:53.772Z,101057.59
2022-12-25T12:12:02.586Z,101055.75
2022-12-25T12:15:16.096Z,101051.34
2022-12-25T12:18:22.249Z,101054.38
2022-12-25T12:21:27.109Z,101039.91
2022-12-25T12:24:37.022Z,101053.16
2022-12-25T12:27:41.795Z,101049.59
2022-12-25T12:30:44.374Z,101039.84
2022-12-25T12:33:53.383Z,101012.63
2022-12-25T12:37:02.629Z,101008.25
2022-12-25T12:40:22.227Z,101012.16
2022-12-25T12:43:32.895Z,100999.78
2022-12-25T12:46:38.126Z,101003.78
2022-12-25T12:49:40.743Z,101004.53
2022-12-25T12:52:43.395Z,101001.00
2022-12-25T12:55:47.343Z,100995.84
2022-12-25T12:58:51.281Z,100984.09
2022-12-25T13:02:07.339Z,100968.03
2022-12-25T13:05:19.727Z,100970.44
2022-12-25T13:08:35.405Z,100947.06
2022-12-25T13:11:42.984Z,100943.22
2022-12-25T13:14:47.329Z,100933.28
2022-12-25T13:17:50.177Z,100935.81
2022-12-25T13:20:56.124Z,100939.97
2022-12-25T13:24:00.654Z,100944.22
2022-12-25T13:27:22.852Z,100935.56
2022-12-25T13:30:26.560Z,100923.91
2022-12-25T13:33:29.386Z,100910.75
2022-12-25T13:36:37.746Z,100905.34
2022-12-25T13:39:49.640Z,100900.63
2022-12-25T13:42:58.238Z,100907.59
2022-12-25T13:46:00.822Z,100907.25
2022-12-25T13:49:03.454Z,100910.63
2022-12-25T13:52:13.110Z,100911.63
2022-12-25T13:55:18.631Z,100916.91
2022-12-25T13:58:28.200Z,100923.97
2022-12-25T14:01:30.875Z,100924.66
2022-12-25T14:04:33.528Z,100924.91
2022-12-25T14:07:36.188Z,100928.63
2022-12-25T14:10:40.218Z,100914.47
2022-12-25T14:13:46.121Z,100917.66
2022-12-25T14:16:50.341Z,100918.63
2022-12-25T14:20:05.987Z,100916.97
2022-12-25T14:23:16.714Z,100911.03
2022-12-25T14:26:21.215Z,100894.44
2022-12-25T14:29:28.347Z,100895.22
2022-12-25T14:32:39.342Z,100884.28
2022-12-25T14:35:42.605Z,100877.16
2022-12-25T14:38:45.897Z,100870.81
2022-12-25T14:41:54.457Z,100871.75
2022-12-25T14:45:01.298Z,100865.94
2022-12-25T14:48:22.918Z,100872.16
2022-12-25T14:51:27.791Z,100860.38
2022-12-25T14:54:30.448Z,100863.94
2022-12-25T14:57:35.288Z,100851.84
2022-12-25T15:00:40.525Z,100855.34
2022-12-25T15:03:43.289Z,100847.13
2022-12-25T15:06:55.042Z,100844.50
2022-12-25T15:10:27.307Z,100853.41
2022-12-25T15:13:20.501Z,100843.56
2022-12-25T15:16:26.862Z,100824.34
2022-12-25T15:19:37.356Z,100826.09
2022-12-25T15:23:09.949Z,100822.41
2022-12-25T15:26:03.631Z,100829.53
2022-12-25T15:29:07.400Z,100833.97
2022-12-25T15:32:17.655Z,100827.69
2022-12-25T15:35:21.847Z,100821.59
2022-12-25T15:38:24.490Z,100813.75
2022-12-25T15:41:47.521Z,100811.94
2022-12-25T15:44:50.161Z,100813.81
2022-12-25T15:47:54.335Z,100806.66
2022-12-25T15:50:56.951Z,100807.56
2022-12-25T15:53:59.931Z,100804.25
2022-12-25T15:57:05.120Z,100802.56
2022-12-25T16:00:09.738Z,100800.00
2022-12-25T16:03:13.826Z,100797.28
2022-12-25T16:06:18.855Z,100796.47
2022-12-25T16:09:22.128Z,100791.28
2022-12-25T16:12:24.753Z,100794.94
2022-12-25T16:15:27.319Z,100801.13
2022-12-25T16:18:31.525Z,100788.84
2022-12-25T16:21:40.167Z,100780.19
2022-12-25T16:24:42.760Z,100771.38
2022-12-25T16:27:45.634Z,100766.88
2022-12-25T16:30:48.403Z,100772.25
2022-12-25T16:33:53.444Z,100758.22
2022-12-25T16:36:56.955Z,100749.66
2022-12-25T16:39:59.638Z,100742.56
2022-12-25T16:43:02.292Z,100740.94
2022-12-25T16:46:10.127Z,100737.59
2022-12-25T16:49:14.102Z,100728.34
2022-12-25T16:52:16.797Z,100735.09
2022-12-25T16:55:20.298Z,100732.59
2022-12-25T16:58:25.232Z,100727.38
2022-12-25T17:01:27.878Z,100727.75
2022-12-25T17:04:32.067Z,100717.84
2022-12-25T17:07:36.657Z,100719.78
2022-12-25T17:10:39.455Z,100714.34
2022-12-25T17:13:42.071Z,100706.63
2022-12-25T17:16:44.679Z,100698.09
2022-12-25T17:19:48.811Z,100689.03
2022-12-25T17:22:51.448Z,100696.97
2022-12-25T17:25:54.060Z,100682.03
2022-12-25T17:28:57.319Z,100686.47
2022-12-25T17:31:59.977Z,100682.22
2022-12-25T17:35:04.132Z,100678.56
2022-12-25T17:38:06.708Z,100683.97
2022-12-25T17:41:12.433Z,100678.53
2022-12-25T17:44:15.017Z,100676.84
2022-12-25T17:47:17.588Z,100673.28
2022-12-25T17:50:21.731Z,100657.53
2022-12-25T17:53:24.341Z,100659.19
2022-12-25T17:56:27.212Z,100650.31
2022-12-25T17:59:29.888Z,100656.41
2022-12-25T18:02:32.592Z,100651.13
2022-12-25T18:05:37.796Z,100639.75
2022-12-25T18:08:41.199Z,100636.19
2022-12-25T18:11:44.388Z,100625.72
2022-12-25T18:14:46.979Z,100615.16
2022-12-25T18:17:49.550Z,100613.34
2022-12-25T18:20:54.471Z,100606.28
2022-12-25T18:23:57.200Z,100608.91
2022-12-25T18:26:59.800Z,100606.41
2022-12-25T18:30:02.407Z,100608.00
2022-12-25T18:33:04.998Z,100609.66
2022-12-25T18:36:09.554Z,100606.13
2022-12-25T18:39:12.966Z,100599.09
2022-12-25T18:42:35.138Z,100591.38
2022-12-25T18:45:38.071Z,100587.63
2022-12-25T18:48:41.303Z,100577.84
2022-12-25T18:51:45.283Z,100563.63
2022-12-25T18:54:47.852Z,100557.47
2022-12-25T18:57:50.490Z,100557.47
2022-12-25T19:00:53.223Z,100549.16
2022-12-25T19:04:04.420Z,100553.16
2022-12-25T19:07:09.320Z,100548.28
2022-12-25T19:10:11.921Z,100541.06
2022-12-25T19:13:14.513Z,100544.28
2022-12-25T19:16:17.286Z,100541.72
2022-12-25T19:19:19.986Z,100542.56
2022-12-25T19:22:23.896Z,100537.19
2022-12-25T19:25:27.662Z,100530.06
2022-12-25T19:28:30.314Z,100525.59
2022-12-25T19:31:32.953Z,100510.78
2022-12-25T19:34:35.768Z,100507.22
2022-12-25T19:37:39.704Z,100506.16
2022-12-25T19:40:59.949Z,100499.72
2022-12-25T19:44:03.186Z,100498.44
2022-12-25T19:47:05.827Z,100494.06
2022-12-25T19:50:09.212Z,100487.94
2022-12-25T19:53:13.171Z,100474.00
2022-12-25T19:56:16.380Z,100477.44
2022-12-25T19:59:18.944Z,100485.53
2022-12-25T20:02:21.657Z,100485.22
2022-12-25T20:05:24.336Z,100476.63
2022-12-25T20:08:28.454Z,100472.91
2022-12-25T20:11:33.214Z,100477.22
2022-12-25T20:14:35.813Z,100468.59
2022-12-25T20:17:38.451Z,100463.44
2022-12-25T20:20:41.193Z,100472.91
2022-12-25T20:23:46.777Z,100474.56
2022-12-25T20:26:53.749Z,100482.38
2022-12-25T20:29:59.683Z,100476.13
2022-12-25T20:33:02.640Z,100471.69
2022-12-25T20:36:06.282Z,100474.28
2022-12-25T20:39:12.091Z,100473.41
2022-12-25T20:42:14.670Z,100471.59
2022-12-25T20:45:17.386Z,100472.50
2022-12-25T20:48:20.006Z,100463.69
2022-12-25T20:51:24.096Z,100456.50
2022-12-25T20:54:28.021Z,100460.88
2022-12-25T20:57:30.630Z,100462.75
2022-12-25T21:00:33.245Z,100478.59
2022-12-25T21:03:36.306Z,100475.97
2022-12-25T21:06:38.890Z,100468.81
2022-12-25T21:09:43.137Z,100475.91
2022-12-25T21:12:45.753Z,100463.59
2022-12-25T21:15:49.579Z,100462.75
2022-12-25T21:18:54.432Z,100466.31
2022-12-25T21:21:57.012Z,100475.09
2022-12-25T21:25:01.009Z,100471.50
2022-12-25T21:28:03.617Z,100466.31
2022-12-25T21:31:07.173Z,100465.44
2022-12-25T21:34:08.791Z,100460.16
2022-12-25T21:37:11.405Z,100446.13
2022-12-25T21:40:16.611Z,100456.59
2022-12-25T21:43:19.407Z,100446.19
2022-12-25T21:46:22.525Z,100439.06
2022-12-25T21:49:39.190Z,100428.72
2022-12-25T21:52:41.989Z,100427.94
2022-12-25T21:55:56.743Z,100439.06
2022-12-25T21:59:00.380Z,100427.47
2022-12-25T22:02:11.007Z,100434.50
2022-12-25T22:05:34.070Z,100442.47
2022-12-25T22:08:35.779Z,100445.19
2022-12-25T22:11:57.337Z,100439.78
2022-12-25T22:15:06.092Z,100438.00
2022-12-25T22:18:27.169Z,100423.03
2022-12-25T22:21:29.818Z,100436.41
2022-12-25T22:24:32.397Z,100439.22
2022-12-25T22:27:38.616Z,100441.50
2022-12-25T22:30:44.394Z,100434.28
2022-12-25T22:33:47.059Z,100444.78
2022-12-25T22:36:50.165Z,100443.97
2022-12-25T22:39:52.825Z,100437.72
2022-12-25T22:42:57.521Z,100444.91
2022-12-25T22:46:00.263Z,100451.97
2022-12-25T22:49:02.899Z,100456.28
2022-12-25T22:52:05.511Z,100452.19
2022-12-25T22:55:09.820Z,100452.91
2022-12-25T22:58:13.792Z,100459.09
2022-12-25T23:01:17.021Z,100442.53
2022-12-25T23:04:19.745Z,100443.97
2022-12-25T23:07:22.348Z,100446.47
2022-12-25T23:10:24.934Z,100454.41
2022-12-25T23:13:46.325Z,100446.47
2022-12-25T23:16:48.933Z,100452.72
2022-12-25T23:20:09.110Z,100455.31
2022-12-25T23:23:32.971Z,100456.13
2022-12-25T23:26:35.578Z,100464.28
2022-12-25T23:29:39.888Z,100458.00
2022-12-25T23:32:43.559Z,100448.50
2022-12-25T23:35:46.130Z,100444.91
2022-12-25T23:38:49.781Z,100441.50
2022-12-25T23:41:52.466Z,100431.47
2022-12-25T23:44:56.432Z,100443.91
2022-12-25T23:47:59.031Z,100448.19
2022-12-25T23:51:04.152Z,100452.47
2022-12-25T23:54:07.683Z,100446.22
2022-12-25T23:57:10.294Z,100442.03
